Hlavní strana
METAR-TAF:

METAR-TAF

Letiště :

Kokkola, Finsko

zeměpisná šířka: 63-43N, zeměpisná délka: 023-09E, výška: 25 m

Aktuální stav počasí

Zpráva byla vytvořena před 21 minutami, v 02:50 UTC
Západoseverozápadní vítr 3 kt
Teplota 1°C
Vlhkost vzduchu 100%
Tlak 1021 hPa
Viditelnost: 8000 m
Zataženo ve výšce 400 ft

METAR: EFKK 180250Z AUTO 30003KT 8000 OVC004 01/01 Q1021

Čas: 05:11 (03:11 UTC)

Předpověď počasí

Zpráva byla vytvořena před 6 hodinami a 39 minutami, v 20:32 UTC
Předpověď platná od 17 v 21 UTC do 17 v 24 UTC
vítr z různých směrů 2 kt
Viditelnost: 5000 m
Skoro jasno ve výšce 600 ft
Zataženo ve výšce 1300 ft
slabý déšť, mrholení
Dočasný
od 17 v 21 UTC do 17 v 24 UTC
Viditelnost: 0500 m
ve výšce 100 ft
mlha

TAF: EFKK 172032Z 1721/1724 VRB02KT 5000 -RADZ FEW006 OVC013 TEMPO 1721/1724 0500 FG VV001

Stav a předpovědi počasí z více než 4 000 letišť (zprávy METAR a TAF).

Červené a žluté tečky na mapě představují dostupné meteorologické stanice.

Když kurzor umístíte na tečku, zobrazí se název stanice.

Pak kliknutím zobrazíte stav a předpověď počasí.

Chcete-li změnit mapu, kliknutím na zelené tlačítko se znaménkem +mapu přiblížíte, kliknutím na zelené tlačítko se znaménkem – mapu oddálíte a kliknutím na zelené šipky přejdete na sousední mapy.


METAR-TAF: